Latest Coastal Weather Observations for Rottnest Island

IDW60701

Issued at 8:02 pm WST Tuesday 26 July 2016 (issued every 10 minutes, with the page automatically refreshed every 10 minutes)

About coastal observations | Map of coastal stations | Coastal observations for WA | Marine services | Other Formats
Station Details ID: 009193 Name: ROTTNEST ISLAND Lat: -32.01 Lon: 115.50 Height: 43.1 m
Data from the previous 72 hours. | See also: Recent months at Rottnest Island
Date/Time
WST
Temp
°C
Wind Pressure Rain since
9am
mm
Weather Cloud Vis
km
Sea
Height
m
Swell
Dir  Spd
kts
Gust
kts
hPa Trend Height
m
Period
s
Dir
26/08:00pm 14.7 S 10 13 1027.9 - 0.0 - - - - - - -
26/07:30pm 14.8 S 9 11 1027.9 - 0.0 - - - - - - -
26/07:00pm 14.6 S 9 12 1027.6 - 0.0 - - - - - - -
26/06:30pm 14.9 SSE 9 11 1027.4 - 0.0 - - - - - - -
26/06:00pm 15.0 SSE 8 12 1027.1 - 0.0 - - - - - - -
26/05:30pm 14.8 SSE 9 11 1026.9 - 0.0 - - - - - - -
26/05:00pm 15.4 SSE 9 12 1026.8 - 0.0 - - - - - - -
26/04:30pm 15.5 SSE 8 10 1026.9 - 0.0 - - - - - - -
26/04:00pm 15.9 SSE 7 9 1026.9 - 0.0 - - - - - - -
26/03:30pm 15.7 S 6 9 1026.9 - 0.0 - - - - - - -
26/03:00pm 16.2 S 5 7 1027.1 - 0.0 - - - - - - -
26/02:30pm 15.9 SSE 4 6 1027.1 - 0.0 - - - - - - -
26/02:00pm 16.7 NNE 3 6 1027.2 - 0.0 - - - - - - -
26/01:30pm 16.9 NNE 8 11 1027.2 - 0.0 - - - - - - -
26/01:00pm 16.7 N 8 11 1027.5 - 0.0 - - - - - - -
26/12:30pm 15.9 N 9 11 1027.8 - 0.0 - - - - - - -
26/12:00pm 16.1 NNE 7 9 1028.1 - 0.0 - - - - - - -
26/11:30am 16.3 NNE 7 9 1028.3 - 0.0 - - - - - - -
26/11:00am 15.2 NNE 8 11 1028.7 - 0.0 - - - - - - -
26/10:30am 13.7 NE 8 10 1028.8 - 0.0 - - - - - - -
26/10:00am 14.2 NNE 10 12 1028.7 - 0.0 - - - - - - -
26/09:30am 14.4 NNE 9 11 1028.6 - 0.0 - - - - - - -
26/09:00am 14.6 N 8 10 1028.4 - 0.0 - - - - - - -
26/08:30am 13.7 N 6 8 1028.3 - 0.0 - - - - - - -
26/08:00am 12.9 N 7 9 1028.1 - 0.0 - - - - - - -
26/07:30am 12.7 N 8 10 1027.9 - 0.0 - - - - - - -
26/07:00am 12.6 NNE 8 9 1027.6 - 0.0 - - - - - - -
26/06:30am 12.7 NNE 7 8 1027.6 - 0.0 - - - - - - -
26/06:00am 13.0 NNE 9 11 1027.4 - 0.0 - - - - - - -
26/05:30am 13.3 NNE 7 9 1027.2 - 0.0 - - - - - - -
26/05:00am 13.1 N 7 8 1027.0 - 0.0 - - - - - - -
26/04:30am 12.5 N 7 9 1026.9 - 0.0 - - - - - - -
26/04:00am 12.9 N 8 11 1027.0 - 0.0 - - - - - - -
26/03:30am 13.0 NNE 7 8 1027.4 - 0.0 - - - - - - -
26/03:00am 13.2 NNE 7 8 1027.4 - 0.0 - - - - - - -
26/02:30am 13.1 NNE 7 7 1027.3 - 0.0 - - - - - - -
26/02:00am 12.6 NE 7 8 1027.3 - 0.0 - - - - - - -
26/01:30am 12.9 NNE 6 7 1027.5 - 0.0 - - - - - - -
26/01:00am 12.6 NNE 6 7 1027.6 - 0.0 - - - - - - -
26/12:30am 12.5 NE 7 9 1027.4 - 0.0 - - - - - - -
26/12:00am 12.9 NE 7 10 1027.9 - 0.0 - - - - - - -
 
Date/Time
WST
Temp
°C
Wind Pressure Rain since
9am
mm
Weather Cloud Vis
km
Sea
Height
m
Swell
Dir  Spd
kts
Gust
kts
hPa Trend Height
m
Period
s
Dir
25/11:30pm 14.3 SSE 9 11 1028.0 - 0.0 - - - - - - -
25/11:00pm 14.1 S 8 10 1028.0 - 0.0 - - - - - - -
25/10:30pm 13.7 S 9 11 1028.3 - 0.0 - - - - - - -
25/10:00pm 13.8 SSW 9 12 1028.3 - 0.0 - - - - - - -
25/09:30pm 13.2 S 8 10 1028.1 - 0.0 - - - - - - -
25/09:00pm 13.5 S 5 7 1027.8 - 0.0 - - - - - - -
25/08:30pm 13.8 SSE 5 8 1027.8 - 0.0 - - - - - - -
25/08:00pm 13.8 SSE 6 8 1027.8 - 0.0 - - - - - - -
25/07:30pm 13.7 S 9 11 1027.8 - 0.0 - - - - - - -
25/07:00pm 13.9 S 9 11 1027.4 - 0.0 - - - - - - -
25/06:30pm 14.5 SSE 12 16 1027.1 - 0.0 - - - - - - -
25/06:00pm 14.1 SSE 10 14 1027.0 - 0.0 - - - - - - -
25/05:30pm 14.1 SSE 11 15 1026.9 - 0.0 - - - - - - -
25/05:00pm 14.3 SSE 9 14 1026.8 - 0.0 - - - - - - -
25/04:30pm 14.5 SSE 9 13 1026.6 - 0.0 - - - - - - -
25/04:00pm 14.9 SSE 10 13 1026.4 - 0.0 - - - - - - -
25/03:30pm 15.1 SSE 12 16 1026.4 - 0.0 - - - - - - -
25/03:00pm 15.2 SSE 14 19 1026.2 - 0.0 - - - - - - -
25/02:30pm 15.1 SSE 15 19 1026.3 - 0.0 - - - - - - -
25/02:00pm 15.4 SSE 13 17 1026.5 - 0.0 - - - - - - -
25/01:30pm 14.9 SSE 13 17 1026.8 - 0.0 - - - - - - -
25/01:00pm 15.0 SE 9 13 1027.0 - 0.0 - - - - - - -
25/12:30pm 14.5 SE 11 14 1027.4 - 0.0 - - - - - - -
25/12:00pm 14.7 SE 9 13 1027.8 - 0.0 - - - - - - -
25/11:30am 13.7 SE 9 13 1028.3 - 0.0 - - - - - - -
25/11:00am 14.0 SE 9 12 1028.4 - 0.0 - - - - - - -
25/10:30am 13.3 ESE 7 11 1028.6 - 0.0 - - - - - - -
25/10:00am 13.0 SE 8 12 1028.6 - 0.0 - - - - - - -
25/09:30am 12.9 E 7 11 1028.5 - 0.0 - - - - - - -
25/09:00am 12.8 E 7 13 1028.3 - 0.0 - - - - - - -
25/08:30am 12.0 ESE 7 9 1028.3 - 0.0 - - - - - - -
25/08:00am 11.3 ESE 7 10 1028.1 - 0.0 - - - - - - -
25/07:30am 10.6 E 6 9 1027.8 - 0.0 - - - - - - -
25/07:00am 10.7 E 8 11 1027.3 - 0.0 - - - - - - -
25/06:30am 11.1 NE 8 11 1026.9 - 0.0 - - - - - - -
25/06:00am 11.3 E 7 9 1026.7 - 0.0 - - - - - - -
25/05:30am 11.5 ESE 7 10 1026.7 - 0.0 - - - - - - -
25/05:00am 11.9 ESE 9 13 1026.6 - 0.0 - - - - - - -
25/04:30am 12.0 E 7 9 1026.5 - 0.0 - - - - - - -
25/04:00am 12.2 ESE 7 9 1026.6 - 0.0 - - - - - - -
25/03:30am 12.1 E 6 9 1026.5 - 0.0 - - - - - - -
25/03:00am 12.0 E 5 7 1026.7 - 0.0 - - - - - - -
25/02:30am 11.7 E 6 7 1026.7 - 0.0 - - - - - - -
25/02:00am 11.8 ENE 6 7 1026.7 - 0.0 - - - - - - -
25/01:30am 12.0 SE 6 9 1027.0 - 0.0 - - - - - - -
25/01:00am 12.2 E 7 9 1026.9 - 0.0 - - - - - - -
25/12:30am 12.3 E 6 9 1027.2 - 0.0 - - - - - - -
25/12:00am 12.4 E 8 10 1027.3 - 0.0 - - - - - - -
 
Date/Time
WST
Temp
°C
Wind Pressure Rain since
9am
mm
Weather Cloud Vis
km
Sea
Height
m
Swell
Dir  Spd
kts
Gust
kts
hPa Trend Height
m
Period
s
Dir
24/11:30pm 12.4 E 7 8 1027.4 - 0.0 - - - - - - -
24/11:00pm 12.5 E 6 8 1027.5 - 0.0 - - - - - - -
24/10:30pm 12.8 NE 5 7 1027.5 - 0.0 - - - - - - -
24/10:00pm 12.8 ESE 6 8 1027.7 - 0.0 - - - - - - -
24/09:30pm 12.7 ESE 6 8 1027.6 - 0.0 - - - - - - -
24/09:00pm 13.2 SE 10 13 1027.5 - 0.0 - - - - - - -
24/08:30pm 13.3 SSE 12 16 1027.2 - 0.0 - - - - - - -
24/08:00pm 13.3 S 14 18 1027.1 - 0.0 - - - - - - -
24/07:30pm 13.2 SSE 13 16 1026.9 - 0.0 - - - - - - -
24/07:00pm 13.1 SSE 13 17 1026.8 - 0.0 - - - - - - -
24/06:30pm 13.1 SSE 12 16 1026.7 - 0.0 - - - - - - -
24/06:00pm 13.1 S 11 15 1026.4 - 0.0 - - - - - - -
24/05:30pm 13.1 S 12 16 1026.2 - 0.0 - - - - - - -
24/05:00pm 13.1 SSE 11 15 1026.1 - 0.0 - - - - - - -
24/04:30pm 13.2 SSE 12 16 1026.0 - 0.0 - - - - - - -
24/04:00pm 13.1 SSE 13 17 1026.0 - 0.0 - - - - - - -
24/03:30pm 13.3 SSE 11 15 1025.9 - 0.0 - - - - - - -
24/03:00pm 13.8 SSE 8 13 1025.9 - 0.0 - - - - - - -
24/02:30pm 13.5 SE 9 13 1026.1 - 0.0 - - - - - - -
24/02:00pm 13.0 SE 11 15 1026.2 - 0.0 - - - - - - -
24/01:30pm 13.2 ESE 8 11 1026.6 - 0.0 - - - - - - -
24/01:00pm 13.0 E 7 12 1027.0 - 0.0 - - - - - - -
24/12:30pm 12.8 E 9 13 1027.5 - 0.0 - - - - - - -
24/12:00pm 12.4 ESE 9 13 1028.0 - 0.0 - - - - - - -
24/11:30am 12.6 ESE 8 11 1028.4 - 0.0 - - - - - - -
24/11:00am 12.3 ESE 7 10 1028.8 - 0.0 - - - - - - -
24/10:30am 12.2 ESE 8 10 1028.9 - 0.0 - - - - - - -
24/10:00am 12.2 NE 6 9 1029.0 - 0.0 - - - - - - -
24/09:30am 11.9 E 6 8 1028.8 - 0.0 - - - - - - -
24/09:00am 11.3 ENE 8 10 1028.7 - 0.4 - - - - - - -
24/08:30am 10.6 ENE 7 9 1028.3 - 0.4 - - - - - - -
24/08:00am 9.6 E 8 9 1027.9 - 0.4 - - - - - - -
24/07:30am 8.7 E 7 9 1027.6 - 0.4 - - - - - - -
24/07:00am 8.8 E 7 9 1027.3 - 0.4 - - - - - - -
24/06:30am 9.0 E 7 8 1027.0 - 0.4 - - - - - - -
24/06:00am 9.2 E 7 9 1026.6 - 0.4 - - - - - - -
24/05:30am 9.1 ESE 7 9 1026.6 - 0.4 - - - - - - -
24/05:00am 9.5 ESE 8 12 1026.4 - 0.4 - - - - - - -
24/04:30am 9.6 ESE 9 13 1026.3 - 0.4 - - - - - - -
24/04:00am 9.8 ESE 8 12 1026.2 - 0.4 - - - - - - -
24/03:30am 9.8 ESE 8 11 1026.3 - 0.4 - - - - - - -
24/03:00am 10.3 SE 9 16 1026.5 - 0.4 - - - - - - -
24/02:30am 10.6 SE 14 19 1026.5 - 0.4 - - - - - - -
24/02:00am 10.3 SE 11 16 1026.5 - 0.4 - - - - - - -
24/01:30am 10.2 SE 11 15 1026.3 - 0.4 - - - - - - -
24/01:00am 10.8 SE 14 19 1026.2 - 0.4 - - - - - - -
24/12:30am 10.9 SE 18 24 1026.2 - 0.4 - - - - - - -
24/12:00am 10.6 SE 18 22 1026.2 - 0.4 - - - - - - -
 
Date/Time
WST
Temp
°C
Wind Pressure Rain since
9am
mm
Weather Cloud Vis
km
Sea
Height
m
Swell
Dir  Spd
kts
Gust
kts
hPa Trend Height
m
Period
s
Dir
23/11:30pm 11.5 SE 18 25 1026.1 - 0.4 - - - - - - -
23/11:00pm 11.7 SSE 18 24 1026.0 - 0.4 - - - - - - -
23/10:30pm 11.9 SSE 18 25 1025.8 - 0.4 - - - - - - -
23/10:00pm 12.2 SSE 21 27 1025.6 - 0.4 - - - - - - -
23/09:30pm 12.7 SSE 22 28 1025.1 - 0.4 - - - - - - -
23/09:00pm 12.9 SSE 19 26 1024.9 - 0.4 - - - - - - -
23/08:30pm 13.1 SSE 19 24 1024.7 - 0.4 - - - - - - -

Other Formats:

Comma delimited format used in spreadsheet applications
http://www.bom.gov.au/fwo/IDW60701/IDW60701.94602.axf

JavaScript Object Notation format (JSON) in row-major order
http://www.bom.gov.au/fwo/IDW60701/IDW60701.94602.json